sensor_id;sensor_type;location;lat;lon;timestamp;P1;durP1;ratioP1;P2;durP2;ratioP2
71236;SDS011;58984;51.960;5.582;2023-04-24T00:00:24;3.88;;;2.03;;
71236;SDS011;58984;51.960;5.582;2023-04-24T00:02:50;2.67;;;1.85;;
71236;SDS011;58984;51.960;5.582;2023-04-24T00:05:16;2.78;;;1.90;;
71236;SDS011;58984;51.960;5.582;2023-04-24T00:07:42;2.80;;;2.10;;
71236;SDS011;58984;51.960;5.582;2023-04-24T00:10:09;3.58;;;1.85;;
71236;SDS011;58984;51.960;5.582;2023-04-24T00:12:36;2.15;;;1.95;;
71236;SDS011;58984;51.960;5.582;2023-04-24T00:15:02;2.85;;;2.05;;
71236;SDS011;58984;51.960;5.582;2023-04-24T00:17:28;2.60;;;1.65;;
71236;SDS011;58984;51.960;5.582;2023-04-24T00:19:53;2.78;;;1.73;;
71236;SDS011;58984;51.960;5.582;2023-04-24T00:22:25;2.55;;;1.85;;
71236;SDS011;58984;51.960;5.582;2023-04-24T00:24:51;2.00;;;1.58;;
71236;SDS011;58984;51.960;5.582;2023-04-24T00:27:17;2.85;;;1.63;;
71236;SDS011;58984;51.960;5.582;2023-04-24T00:29:42;2.67;;;1.70;;
71236;SDS011;58984;51.960;5.582;2023-04-24T00:32:08;3.47;;;1.90;;
71236;SDS011;58984;51.960;5.582;2023-04-24T00:34:33;3.08;;;1.88;;
71236;SDS011;58984;51.960;5.582;2023-04-24T00:36:59;2.15;;;1.70;;
71236;SDS011;58984;51.960;5.582;2023-04-24T00:39:25;2.00;;;1.40;;
71236;SDS011;58984;51.960;5.582;2023-04-24T00:41:50;1.63;;;1.52;;
71236;SDS011;58984;51.960;5.582;2023-04-24T00:44:17;2.60;;;1.63;;
71236;SDS011;58984;51.960;5.582;2023-04-24T00:46:43;2.38;;;1.60;;
71236;SDS011;58984;51.960;5.582;2023-04-24T00:49:08;2.80;;;1.77;;
71236;SDS011;58984;51.960;5.582;2023-04-24T00:51:34;3.67;;;2.20;;
71236;SDS011;58984;51.960;5.582;2023-04-24T00:54:01;2.10;;;1.80;;
71236;SDS011;58984;51.960;5.582;2023-04-24T00:56:27;4.30;;;2.40;;
71236;SDS011;58984;51.960;5.582;2023-04-24T00:58:53;2.92;;;2.00;;
71236;SDS011;58984;51.960;5.582;2023-04-24T01:01:20;3.60;;;1.92;;
71236;SDS011;58984;51.960;5.582;2023-04-24T01:03:46;1.73;;;1.60;;
71236;SDS011;58984;51.960;5.582;2023-04-24T01:06:13;4.10;;;1.65;;
71236;SDS011;58984;51.960;5.582;2023-04-24T01:08:40;1.55;;;1.45;;
71236;SDS011;58984;51.960;5.582;2023-04-24T01:11:06;1.75;;;1.30;;
71236;SDS011;58984;51.960;5.582;2023-04-24T01:13:32;2.13;;;1.20;;
71236;SDS011;58984;51.960;5.582;2023-04-24T01:15:59;1.30;;;1.20;;
71236;SDS011;58984;51.960;5.582;2023-04-24T01:18:25;0.95;;;0.85;;
71236;SDS011;58984;51.960;5.582;2023-04-24T01:20:53;1.58;;;1.10;;
71236;SDS011;58984;51.960;5.582;2023-04-24T01:23:21;1.48;;;1.10;;
71236;SDS011;58984;51.960;5.582;2023-04-24T01:25:46;1.50;;;1.05;;
71236;SDS011;58984;51.960;5.582;2023-04-24T01:28:13;1.58;;;1.17;;
71236;SDS011;58984;51.960;5.582;2023-04-24T01:30:39;1.55;;;1.15;;
71236;SDS011;58984;51.960;5.582;2023-04-24T01:33:05;1.48;;;0.98;;
71236;SDS011;58984;51.960;5.582;2023-04-24T01:35:31;1.95;;;1.23;;
71236;SDS011;58984;51.960;5.582;2023-04-24T01:37:57;1.30;;;1.02;;
71236;SDS011;58984;51.960;5.582;2023-04-24T01:40:23;1.15;;;0.98;;
71236;SDS011;58984;51.960;5.582;2023-04-24T01:42:48;1.92;;;1.33;;
71236;SDS011;58984;51.960;5.582;2023-04-24T01:45:14;1.15;;;1.02;;
71236;SDS011;58984;51.960;5.582;2023-04-24T01:47:39;1.83;;;1.38;;
71236;SDS011;58984;51.960;5.582;2023-04-24T01:50:05;1.42;;;1.30;;
71236;SDS011;58984;51.960;5.582;2023-04-24T01:52:31;2.30;;;1.23;;
71236;SDS011;58984;51.960;5.582;2023-04-24T01:55:01;2.47;;;1.00;;
71236;SDS011;58984;51.960;5.582;2023-04-24T01:57:28;1.33;;;1.05;;
71236;SDS011;58984;51.960;5.582;2023-04-24T01:59:55;1.83;;;1.13;;
71236;SDS011;58984;51.960;5.582;2023-04-24T02:02:21;2.03;;;1.40;;
71236;SDS011;58984;51.960;5.582;2023-04-24T02:04:48;1.73;;;1.50;;
71236;SDS011;58984;51.960;5.582;2023-04-24T02:07:17;2.42;;;1.48;;
71236;SDS011;58984;51.960;5.582;2023-04-24T02:09:42;2.30;;;1.60;;
71236;SDS011;58984;51.960;5.582;2023-04-24T02:12:09;3.22;;;2.00;;
71236;SDS011;58984;51.960;5.582;2023-04-24T02:14:34;3.67;;;2.10;;
71236;SDS011;58984;51.960;5.582;2023-04-24T02:17:00;3.47;;;2.67;;
71236;SDS011;58984;51.960;5.582;2023-04-24T02:19:25;3.50;;;2.55;;
71236;SDS011;58984;51.960;5.582;2023-04-24T02:21:51;4.75;;;3.40;;
71236;SDS011;58984;51.960;5.582;2023-04-24T02:24:17;4.45;;;3.13;;
71236;SDS011;58984;51.960;5.582;2023-04-24T02:26:42;4.75;;;3.47;;
71236;SDS011;58984;51.960;5.582;2023-04-24T02:29:08;6.32;;;4.15;;
71236;SDS011;58984;51.960;5.582;2023-04-24T02:31:33;5.68;;;3.83;;
71236;SDS011;58984;51.960;5.582;2023-04-24T02:33:59;7.93;;;4.55;;
71236;SDS011;58984;51.960;5.582;2023-04-24T02:36:25;7.57;;;5.05;;
71236;SDS011;58984;51.960;5.582;2023-04-24T02:38:50;7.28;;;4.53;;
71236;SDS011;58984;51.960;5.582;2023-04-24T02:41:16;8.38;;;5.35;;
71236;SDS011;58984;51.960;5.582;2023-04-24T02:43:41;5.35;;;4.00;;
71236;SDS011;58984;51.960;5.582;2023-04-24T02:46:07;6.82;;;4.38;;
71236;SDS011;58984;51.960;5.582;2023-04-24T02:48:32;6.20;;;4.15;;
71236;SDS011;58984;51.960;5.582;2023-04-24T02:50:58;4.65;;;4.05;;
71236;SDS011;58984;51.960;5.582;2023-04-24T02:53:23;5.10;;;3.70;;
71236;SDS011;58984;51.960;5.582;2023-04-24T02:55:49;6.75;;;3.88;;
71236;SDS011;58984;51.960;5.582;2023-04-24T02:58:15;4.40;;;3.55;;
71236;SDS011;58984;51.960;5.582;2023-04-24T03:00:41;5.68;;;3.63;;
71236;SDS011;58984;51.960;5.582;2023-04-24T03:03:08;6.22;;;3.80;;
71236;SDS011;58984;51.960;5.582;2023-04-24T03:05:33;6.10;;;4.00;;
71236;SDS011;58984;51.960;5.582;2023-04-24T03:07:59;4.82;;;3.45;;
71236;SDS011;58984;51.960;5.582;2023-04-24T03:10:25;6.60;;;3.45;;
71236;SDS011;58984;51.960;5.582;2023-04-24T03:12:50;5.03;;;3.53;;
71236;SDS011;58984;51.960;5.582;2023-04-24T03:15:16;5.80;;;4.03;;
71236;SDS011;58984;51.960;5.582;2023-04-24T03:17:41;6.18;;;3.88;;
71236;SDS011;58984;51.960;5.582;2023-04-24T03:20:07;10.02;;;4.63;;
71236;SDS011;58984;51.960;5.582;2023-04-24T03:22:33;6.95;;;4.82;;
71236;SDS011;58984;51.960;5.582;2023-04-24T03:24:59;6.15;;;5.03;;
71236;SDS011;58984;51.960;5.582;2023-04-24T03:27:25;6.82;;;5.00;;
71236;SDS011;58984;51.960;5.582;2023-04-24T03:29:51;9.05;;;6.20;;
71236;SDS011;58984;51.960;5.582;2023-04-24T03:32:20;9.50;;;5.97;;
71236;SDS011;58984;51.960;5.582;2023-04-24T03:34:46;8.57;;;6.35;;
71236;SDS011;58984;51.960;5.582;2023-04-24T03:37:11;12.15;;;7.15;;
71236;SDS011;58984;51.960;5.582;2023-04-24T03:39:37;11.98;;;7.30;;
71236;SDS011;58984;51.960;5.582;2023-04-24T03:42:02;12.48;;;7.45;;
71236;SDS011;58984;51.960;5.582;2023-04-24T03:44:28;12.18;;;8.48;;
71236;SDS011;58984;51.960;5.582;2023-04-24T03:46:54;15.38;;;9.63;;
71236;SDS011;58984;51.960;5.582;2023-04-24T03:49:19;14.02;;;9.18;;
71236;SDS011;58984;51.960;5.582;2023-04-24T03:51:45;14.27;;;9.27;;
71236;SDS011;58984;51.960;5.582;2023-04-24T03:54:11;14.95;;;9.88;;
71236;SDS011;58984;51.960;5.582;2023-04-24T03:56:36;18.30;;;10.60;;
71236;SDS011;58984;51.960;5.582;2023-04-24T03:59:02;16.23;;;11.18;;
71236;SDS011;58984;51.960;5.582;2023-04-24T04:01:27;17.15;;;10.77;;
71236;SDS011;58984;51.960;5.582;2023-04-24T04:03:53;14.45;;;10.95;;
71236;SDS011;58984;51.960;5.582;2023-04-24T04:06:18;18.55;;;11.57;;
71236;SDS011;58984;51.960;5.582;2023-04-24T04:08:46;16.88;;;13.25;;
71236;SDS011;58984;51.960;5.582;2023-04-24T04:11:11;18.02;;;12.82;;
71236;SDS011;58984;51.960;5.582;2023-04-24T04:13:37;18.02;;;13.07;;
71236;SDS011;58984;51.960;5.582;2023-04-24T04:16:03;23.92;;;14.45;;
71236;SDS011;58984;51.960;5.582;2023-04-24T04:18:28;23.05;;;14.57;;
71236;SDS011;58984;51.960;5.582;2023-04-24T04:20:54;21.25;;;14.23;;
71236;SDS011;58984;51.960;5.582;2023-04-24T04:23:19;22.35;;;14.57;;
71236;SDS011;58984;51.960;5.582;2023-04-24T04:25:45;20.27;;;13.63;;
71236;SDS011;58984;51.960;5.582;2023-04-24T04:28:11;20.67;;;13.90;;
71236;SDS011;58984;51.960;5.582;2023-04-24T04:30:37;23.20;;;14.80;;
71236;SDS011;58984;51.960;5.582;2023-04-24T04:33:03;23.50;;;15.00;;
71236;SDS011;58984;51.960;5.582;2023-04-24T04:35:28;24.00;;;13.85;;
71236;SDS011;58984;51.960;5.582;2023-04-24T04:37:54;21.77;;;15.05;;
71236;SDS011;58984;51.960;5.582;2023-04-24T04:40:23;22.63;;;13.77;;
71236;SDS011;58984;51.960;5.582;2023-04-24T04:42:49;19.85;;;13.27;;
71236;SDS011;58984;51.960;5.582;2023-04-24T04:45:17;19.25;;;11.90;;
71236;SDS011;58984;51.960;5.582;2023-04-24T04:47:43;21.65;;;12.48;;
71236;SDS011;58984;51.960;5.582;2023-04-24T04:50:09;15.93;;;10.38;;
71236;SDS011;58984;51.960;5.582;2023-04-24T04:52:35;13.60;;;10.48;;
71236;SDS011;58984;51.960;5.582;2023-04-24T04:55:01;13.43;;;9.40;;
71236;SDS011;58984;51.960;5.582;2023-04-24T04:57:27;12.93;;;8.50;;
71236;SDS011;58984;51.960;5.582;2023-04-24T04:59:52;15.93;;;7.70;;
71236;SDS011;58984;51.960;5.582;2023-04-24T05:02:18;12.90;;;7.65;;
71236;SDS011;58984;51.960;5.582;2023-04-24T05:04:44;10.60;;;6.43;;
71236;SDS011;58984;51.960;5.582;2023-04-24T05:07:10;7.63;;;6.13;;
71236;SDS011;58984;51.960;5.582;2023-04-24T05:09:36;9.40;;;5.78;;
71236;SDS011;58984;51.960;5.582;2023-04-24T05:12:02;8.43;;;5.45;;
71236;SDS011;58984;51.960;5.582;2023-04-24T05:14:28;6.47;;;4.88;;
71236;SDS011;58984;51.960;5.582;2023-04-24T05:16:53;7.43;;;5.10;;
71236;SDS011;58984;51.960;5.582;2023-04-24T05:19:19;7.35;;;4.95;;
71236;SDS011;58984;51.960;5.582;2023-04-24T05:21:44;9.30;;;5.05;;
71236;SDS011;58984;51.960;5.582;2023-04-24T05:24:10;8.07;;;4.68;;
71236;SDS011;58984;51.960;5.582;2023-04-24T05:26:36;6.13;;;4.00;;
71236;SDS011;58984;51.960;5.582;2023-04-24T05:29:01;8.40;;;4.47;;
71236;SDS011;58984;51.960;5.582;2023-04-24T05:31:27;6.13;;;4.30;;
71236;SDS011;58984;51.960;5.582;2023-04-24T05:33:53;6.07;;;4.47;;
71236;SDS011;58984;51.960;5.582;2023-04-24T05:36:18;9.70;;;4.45;;
71236;SDS011;58984;51.960;5.582;2023-04-24T05:38:44;5.57;;;3.95;;
71236;SDS011;58984;51.960;5.582;2023-04-24T05:41:10;4.40;;;4.00;;
71236;SDS011;58984;51.960;5.582;2023-04-24T05:43:35;5.65;;;4.13;;
71236;SDS011;58984;51.960;5.582;2023-04-24T05:46:01;9.23;;;4.40;;
71236;SDS011;58984;51.960;5.582;2023-04-24T05:48:26;6.72;;;4.07;;
71236;SDS011;58984;51.960;5.582;2023-04-24T05:50:52;7.20;;;4.28;;
71236;SDS011;58984;51.960;5.582;2023-04-24T05:53:18;5.55;;;3.80;;
71236;SDS011;58984;51.960;5.582;2023-04-24T05:55:44;6.20;;;4.00;;
71236;SDS011;58984;51.960;5.582;2023-04-24T05:58:10;5.85;;;3.53;;
71236;SDS011;58984;51.960;5.582;2023-04-24T06:00:36;4.60;;;3.30;;
71236;SDS011;58984;51.960;5.582;2023-04-24T06:03:02;5.70;;;3.28;;
71236;SDS011;58984;51.960;5.582;2023-04-24T06:05:28;3.95;;;3.17;;
71236;SDS011;58984;51.960;5.582;2023-04-24T06:07:54;4.80;;;3.67;;
71236;SDS011;58984;51.960;5.582;2023-04-24T06:10:20;4.15;;;3.03;;
71236;SDS011;58984;51.960;5.582;2023-04-24T06:12:46;4.78;;;2.95;;
71236;SDS011;58984;51.960;5.582;2023-04-24T06:15:11;4.00;;;2.90;;
71236;SDS011;58984;51.960;5.582;2023-04-24T06:17:37;2.90;;;2.60;;
71236;SDS011;58984;51.960;5.582;2023-04-24T06:20:03;4.57;;;2.80;;
71236;SDS011;58984;51.960;5.582;2023-04-24T06:22:31;3.05;;;2.05;;
71236;SDS011;58984;51.960;5.582;2023-04-24T06:24:56;5.47;;;2.95;;
71236;SDS011;58984;51.960;5.582;2023-04-24T06:27:22;4.30;;;2.42;;
71236;SDS011;58984;51.960;5.582;2023-04-24T06:29:48;4.05;;;2.67;;
71236;SDS011;58984;51.960;5.582;2023-04-24T06:32:19;2.67;;;2.17;;
71236;SDS011;58984;51.960;5.582;2023-04-24T06:34:48;3.05;;;1.98;;
71236;SDS011;58984;51.960;5.582;2023-04-24T06:37:14;4.43;;;2.13;;
71236;SDS011;58984;51.960;5.582;2023-04-24T06:39:41;3.80;;;2.00;;
71236;SDS011;58984;51.960;5.582;2023-04-24T06:42:06;3.08;;;2.08;;
71236;SDS011;58984;51.960;5.582;2023-04-24T06:44:34;2.42;;;1.70;;
71236;SDS011;58984;51.960;5.582;2023-04-24T06:47:05;2.85;;;1.73;;
71236;SDS011;58984;51.960;5.582;2023-04-24T06:49:34;1.67;;;1.40;;
71236;SDS011;58984;51.960;5.582;2023-04-24T06:52:05;1.73;;;1.23;;
71236;SDS011;58984;51.960;5.582;2023-04-24T06:54:31;2.92;;;1.60;;
71236;SDS011;58984;51.960;5.582;2023-04-24T06:56:57;1.58;;;1.08;;
71236;SDS011;58984;51.960;5.582;2023-04-24T06:59:24;1.55;;;1.23;;
71236;SDS011;58984;51.960;5.582;2023-04-24T07:01:49;1.27;;;1.17;;
71236;SDS011;58984;51.960;5.582;2023-04-24T07:04:16;2.30;;;1.35;;
71236;SDS011;58984;51.960;5.582;2023-04-24T07:06:42;1.58;;;1.38;;
71236;SDS011;58984;51.960;5.582;2023-04-24T07:09:08;2.28;;;1.10;;
71236;SDS011;58984;51.960;5.582;2023-04-24T07:11:34;1.17;;;0.90;;
71236;SDS011;58984;51.960;5.582;2023-04-24T07:14:02;1.10;;;1.00;;
71236;SDS011;58984;51.960;5.582;2023-04-24T07:16:28;1.20;;;1.08;;
71236;SDS011;58984;51.960;5.582;2023-04-24T07:18:55;1.45;;;1.00;;
71236;SDS011;58984;51.960;5.582;2023-04-24T07:21:20;1.40;;;1.30;;
71236;SDS011;58984;51.960;5.582;2023-04-24T07:23:46;1.65;;;1.13;;
71236;SDS011;58984;51.960;5.582;2023-04-24T07:26:12;1.70;;;1.33;;
71236;SDS011;58984;51.960;5.582;2023-04-24T07:28:39;1.75;;;1.50;;
71236;SDS011;58984;51.960;5.582;2023-04-24T07:31:05;3.53;;;2.65;;
71236;SDS011;58984;51.960;5.582;2023-04-24T07:33:31;1.83;;;1.70;;
71236;SDS011;58984;51.960;5.582;2023-04-24T07:35:56;4.32;;;2.58;;
71236;SDS011;58984;51.960;5.582;2023-04-24T07:38:22;3.47;;;2.55;;
71236;SDS011;58984;51.960;5.582;2023-04-24T07:40:48;5.57;;;2.67;;
71236;SDS011;58984;51.960;5.582;2023-04-24T07:43:14;5.05;;;3.13;;
71236;SDS011;58984;51.960;5.582;2023-04-24T07:45:39;4.50;;;3.33;;
71236;SDS011;58984;51.960;5.582;2023-04-24T07:48:05;5.72;;;3.35;;
71236;SDS011;58984;51.960;5.582;2023-04-24T07:50:31;5.45;;;3.97;;
71236;SDS011;58984;51.960;5.582;2023-04-24T07:52:57;6.00;;;3.78;;
71236;SDS011;58984;51.960;5.582;2023-04-24T07:55:22;8.45;;;4.72;;
71236;SDS011;58984;51.960;5.582;2023-04-24T07:57:48;6.50;;;4.55;;
71236;SDS011;58984;51.960;5.582;2023-04-24T08:00:14;7.95;;;5.18;;
71236;SDS011;58984;51.960;5.582;2023-04-24T08:02:40;6.22;;;4.63;;
71236;SDS011;58984;51.960;5.582;2023-04-24T08:05:06;7.60;;;5.15;;
71236;SDS011;58984;51.960;5.582;2023-04-24T08:07:32;6.35;;;4.95;;
71236;SDS011;58984;51.960;5.582;2023-04-24T08:09:58;9.10;;;5.15;;
71236;SDS011;58984;51.960;5.582;2023-04-24T08:12:24;8.63;;;5.20;;
71236;SDS011;58984;51.960;5.582;2023-04-24T08:14:50;8.98;;;5.43;;
71236;SDS011;58984;51.960;5.582;2023-04-24T08:17:16;7.30;;;5.30;;
71236;SDS011;58984;51.960;5.582;2023-04-24T08:19:42;6.75;;;5.22;;
71236;SDS011;58984;51.960;5.582;2023-04-24T08:22:12;8.10;;;6.00;;
71236;SDS011;58984;51.960;5.582;2023-04-24T08:24:38;7.18;;;5.60;;
71236;SDS011;58984;51.960;5.582;2023-04-24T08:27:04;7.75;;;5.75;;
71236;SDS011;58984;51.960;5.582;2023-04-24T08:29:29;8.82;;;5.93;;
71236;SDS011;58984;51.960;5.582;2023-04-24T08:31:55;9.30;;;5.78;;
71236;SDS011;58984;51.960;5.582;2023-04-24T08:34:21;8.55;;;5.78;;
71236;SDS011;58984;51.960;5.582;2023-04-24T08:36:47;11.02;;;5.50;;
71236;SDS011;58984;51.960;5.582;2023-04-24T08:39:13;7.90;;;5.55;;
71236;SDS011;58984;51.960;5.582;2023-04-24T08:41:40;9.25;;;5.68;;
71236;SDS011;58984;51.960;5.582;2023-04-24T08:44:07;8.23;;;5.47;;
71236;SDS011;58984;51.960;5.582;2023-04-24T08:46:34;11.43;;;5.88;;
71236;SDS011;58984;51.960;5.582;2023-04-24T08:49:01;7.57;;;5.30;;
71236;SDS011;58984;51.960;5.582;2023-04-24T08:51:28;10.40;;;5.40;;
71236;SDS011;58984;51.960;5.582;2023-04-24T08:53:56;10.25;;;5.70;;
71236;SDS011;58984;51.960;5.582;2023-04-24T08:56:22;10.65;;;5.55;;
71236;SDS011;58984;51.960;5.582;2023-04-24T08:58:50;9.20;;;5.38;;
71236;SDS011;58984;51.960;5.582;2023-04-24T09:01:17;11.27;;;5.55;;
71236;SDS011;58984;51.960;5.582;2023-04-24T09:03:44;10.30;;;5.32;;
71236;SDS011;58984;51.960;5.582;2023-04-24T09:06:13;12.80;;;5.07;;
71236;SDS011;58984;51.960;5.582;2023-04-24T09:08:41;12.27;;;5.05;;
71236;SDS011;58984;51.960;5.582;2023-04-24T09:11:08;8.77;;;5.15;;
71236;SDS011;58984;51.960;5.582;2023-04-24T09:13:34;9.35;;;4.50;;
71236;SDS011;58984;51.960;5.582;2023-04-24T09:16:00;11.85;;;4.38;;
71236;SDS011;58984;51.960;5.582;2023-04-24T09:18:26;11.13;;;4.90;;
71236;SDS011;58984;51.960;5.582;2023-04-24T09:23:27;6.55;;;3.80;;
71236;SDS011;58984;51.960;5.582;2023-04-24T09:25:55;11.43;;;4.40;;
71236;SDS011;58984;51.960;5.582;2023-04-24T09:28:40;9.90;;;4.50;;
71236;SDS011;58984;51.960;5.582;2023-04-24T09:33:37;7.88;;;4.75;;
71236;SDS011;58984;51.960;5.582;2023-04-24T09:36:03;10.40;;;4.05;;
71236;SDS011;58984;51.960;5.582;2023-04-24T09:38:34;10.98;;;4.47;;
71236;SDS011;58984;51.960;5.582;2023-04-24T09:41:01;7.57;;;3.78;;
71236;SDS011;58984;51.960;5.582;2023-04-24T09:43:29;8.82;;;4.60;;
71236;SDS011;58984;51.960;5.582;2023-04-24T09:45:56;5.97;;;4.05;;
71236;SDS011;58984;51.960;5.582;2023-04-24T09:48:30;7.72;;;3.75;;
71236;SDS011;58984;51.960;5.582;2023-04-24T09:50:56;7.60;;;3.80;;
71236;SDS011;58984;51.960;5.582;2023-04-24T09:53:28;5.95;;;3.70;;
71236;SDS011;58984;51.960;5.582;2023-04-24T09:55:54;5.72;;;3.55;;
71236;SDS011;58984;51.960;5.582;2023-04-24T09:58:26;9.73;;;3.88;;
71236;SDS011;58984;51.960;5.582;2023-04-24T10:00:54;7.07;;;3.78;;
71236;SDS011;58984;51.960;5.582;2023-04-24T10:03:21;7.72;;;3.55;;
71236;SDS011;58984;51.960;5.582;2023-04-24T10:05:51;6.68;;;3.72;;
71236;SDS011;58984;51.960;5.582;2023-04-24T10:08:17;7.38;;;3.60;;
71236;SDS011;58984;51.960;5.582;2023-04-24T10:10:44;4.82;;;3.08;;
71236;SDS011;58984;51.960;5.582;2023-04-24T10:13:11;7.03;;;3.40;;
71236;SDS011;58984;51.960;5.582;2023-04-24T10:15:38;6.80;;;3.90;;
71236;SDS011;58984;51.960;5.582;2023-04-24T10:18:05;6.38;;;3.83;;
71236;SDS011;58984;51.960;5.582;2023-04-24T10:20:31;7.18;;;3.28;;
71236;SDS011;58984;51.960;5.582;2023-04-24T10:22:58;10.50;;;3.45;;
71236;SDS011;58984;51.960;5.582;2023-04-24T10:25:25;7.35;;;3.30;;
71236;SDS011;58984;51.960;5.582;2023-04-24T10:27:55;8.35;;;3.75;;
71236;SDS011;58984;51.960;5.582;2023-04-24T10:30:26;9.07;;;3.90;;
71236;SDS011;58984;51.960;5.582;2023-04-24T10:32:53;4.85;;;3.38;;
71236;SDS011;58984;51.960;5.582;2023-04-24T10:35:19;6.00;;;3.20;;
71236;SDS011;58984;51.960;5.582;2023-04-24T10:37:51;5.70;;;2.80;;
71236;SDS011;58984;51.960;5.582;2023-04-24T10:40:29;6.80;;;3.05;;
71236;SDS011;58984;51.960;5.582;2023-04-24T10:42:57;6.20;;;2.80;;
71236;SDS011;58984;51.960;5.582;2023-04-24T10:45:23;5.13;;;3.08;;
71236;SDS011;58984;51.960;5.582;2023-04-24T10:47:53;7.00;;;2.97;;
71236;SDS011;58984;51.960;5.582;2023-04-24T10:50:41;6.03;;;3.00;;
71236;SDS011;58984;51.960;5.582;2023-04-24T10:55:40;4.43;;;2.50;;
71236;SDS011;58984;51.960;5.582;2023-04-24T10:58:07;4.75;;;2.42;;
71236;SDS011;58984;51.960;5.582;2023-04-24T11:00:33;5.60;;;2.95;;
71236;SDS011;58984;51.960;5.582;2023-04-24T11:03:04;4.97;;;2.28;;
71236;SDS011;58984;51.960;5.582;2023-04-24T11:08:30;4.45;;;2.42;;
71236;SDS011;58984;51.960;5.582;2023-04-24T11:18:51;5.88;;;2.05;;
71236;SDS011;58984;51.960;5.582;2023-04-24T11:21:24;4.03;;;2.03;;
71236;SDS011;58984;51.960;5.582;2023-04-24T11:23:51;3.38;;;1.92;;
71236;SDS011;58984;51.960;5.582;2023-04-24T11:26:21;2.30;;;1.70;;
71236;SDS011;58984;51.960;5.582;2023-04-24T11:28:50;3.60;;;2.13;;
71236;SDS011;58984;51.960;5.582;2023-04-24T11:31:34;4.50;;;2.10;;
71236;SDS011;58984;51.960;5.582;2023-04-24T11:34:12;2.88;;;1.70;;
71236;SDS011;58984;51.960;5.582;2023-04-24T11:36:39;3.60;;;2.10;;
71236;SDS011;58984;51.960;5.582;2023-04-24T11:39:07;4.05;;;1.92;;
71236;SDS011;58984;51.960;5.582;2023-04-24T11:41:33;3.33;;;1.98;;
71236;SDS011;58984;51.960;5.582;2023-04-24T11:43:59;2.67;;;1.75;;
71236;SDS011;58984;51.960;5.582;2023-04-24T11:46:28;3.08;;;1.70;;
71236;SDS011;58984;51.960;5.582;2023-04-24T11:48:55;3.15;;;1.70;;
71236;SDS011;58984;51.960;5.582;2023-04-24T11:51:25;3.83;;;1.50;;
71236;SDS011;58984;51.960;5.582;2023-04-24T11:53:52;2.60;;;1.70;;
71236;SDS011;58984;51.960;5.582;2023-04-24T11:56:19;2.70;;;1.40;;
71236;SDS011;58984;51.960;5.582;2023-04-24T11:58:54;3.50;;;1.80;;
71236;SDS011;58984;51.960;5.582;2023-04-24T12:01:20;4.00;;;1.70;;
71236;SDS011;58984;51.960;5.582;2023-04-24T12:03:49;2.70;;;1.60;;
71236;SDS011;58984;51.960;5.582;2023-04-24T12:06:16;3.75;;;1.30;;
71236;SDS011;58984;51.960;5.582;2023-04-24T12:08:41;3.53;;;1.70;;
71236;SDS011;58984;51.960;5.582;2023-04-24T12:11:11;2.35;;;1.60;;
71236;SDS011;58984;51.960;5.582;2023-04-24T12:13:40;4.93;;;2.13;;
71236;SDS011;58984;51.960;5.582;2023-04-24T12:16:05;4.30;;;1.90;;
71236;SDS011;58984;51.960;5.582;2023-04-24T12:18:31;1.90;;;1.50;;
71236;SDS011;58984;51.960;5.582;2023-04-24T12:21:14;3.10;;;1.90;;
71236;SDS011;58984;51.960;5.582;2023-04-24T12:23:43;2.55;;;1.58;;
71236;SDS011;58984;51.960;5.582;2023-04-24T12:26:10;4.03;;;1.80;;
71236;SDS011;58984;51.960;5.582;2023-04-24T12:28:37;2.15;;;1.40;;
71236;SDS011;58984;51.960;5.582;2023-04-24T12:31:03;2.45;;;1.50;;
71236;SDS011;58984;51.960;5.582;2023-04-24T12:33:34;3.60;;;1.65;;
71236;SDS011;58984;51.960;5.582;2023-04-24T12:36:00;3.47;;;1.73;;
71236;SDS011;58984;51.960;5.582;2023-04-24T12:38:27;3.15;;;1.50;;
71236;SDS011;58984;51.960;5.582;2023-04-24T12:41:01;2.80;;;1.67;;
71236;SDS011;58984;51.960;5.582;2023-04-24T12:43:31;3.35;;;1.58;;
71236;SDS011;58984;51.960;5.582;2023-04-24T12:45:57;2.75;;;1.67;;
71236;SDS011;58984;51.960;5.582;2023-04-24T12:48:24;6.50;;;1.83;;
71236;SDS011;58984;51.960;5.582;2023-04-24T12:50:50;1.92;;;1.50;;
71236;SDS011;58984;51.960;5.582;2023-04-24T12:53:15;3.53;;;1.63;;
71236;SDS011;58984;51.960;5.582;2023-04-24T12:55:41;1.85;;;1.58;;
71236;SDS011;58984;51.960;5.582;2023-04-24T12:58:07;2.38;;;1.33;;
71236;SDS011;58984;51.960;5.582;2023-04-24T13:00:32;4.85;;;1.80;;
71236;SDS011;58984;51.960;5.582;2023-04-24T13:02:58;3.53;;;1.65;;
71236;SDS011;58984;51.960;5.582;2023-04-24T13:05:24;5.00;;;1.60;;
71236;SDS011;58984;51.960;5.582;2023-04-24T13:07:49;6.05;;;2.00;;
71236;SDS011;58984;51.960;5.582;2023-04-24T13:10:15;4.68;;;2.10;;
71236;SDS011;58984;51.960;5.582;2023-04-24T13:12:41;3.53;;;1.98;;
71236;SDS011;58984;51.960;5.582;2023-04-24T13:15:10;3.50;;;2.03;;
71236;SDS011;58984;51.960;5.582;2023-04-24T13:17:35;3.33;;;1.90;;
71236;SDS011;58984;51.960;5.582;2023-04-24T13:20:01;2.38;;;1.60;;
71236;SDS011;58984;51.960;5.582;2023-04-24T13:22:27;9.43;;;2.20;;
71236;SDS011;58984;51.960;5.582;2023-04-24T13:24:53;3.42;;;2.00;;
71236;SDS011;58984;51.960;5.582;2023-04-24T13:27:19;6.28;;;2.30;;
71236;SDS011;58984;51.960;5.582;2023-04-24T13:29:45;3.80;;;2.08;;
71236;SDS011;58984;51.960;5.582;2023-04-24T13:32:10;4.63;;;2.10;;
71236;SDS011;58984;51.960;5.582;2023-04-24T13:34:36;4.55;;;2.15;;
71236;SDS011;58984;51.960;5.582;2023-04-24T13:37:02;5.10;;;2.15;;
71236;SDS011;58984;51.960;5.582;2023-04-24T13:39:32;3.60;;;2.25;;
71236;SDS011;58984;51.960;5.582;2023-04-24T13:41:58;5.07;;;2.78;;
71236;SDS011;58984;51.960;5.582;2023-04-24T13:44:24;6.13;;;2.35;;
71236;SDS011;58984;51.960;5.582;2023-04-24T13:46:51;6.85;;;2.42;;
71236;SDS011;58984;51.960;5.582;2023-04-24T13:49:19;5.65;;;2.40;;
71236;SDS011;58984;51.960;5.582;2023-04-24T13:51:45;5.97;;;2.42;;
71236;SDS011;58984;51.960;5.582;2023-04-24T13:54:11;4.57;;;2.30;;
71236;SDS011;58984;51.960;5.582;2023-04-24T13:56:37;5.47;;;2.42;;
71236;SDS011;58984;51.960;5.582;2023-04-24T13:59:03;6.13;;;2.40;;
71236;SDS011;58984;51.960;5.582;2023-04-24T14:01:29;4.53;;;2.67;;
71236;SDS011;58984;51.960;5.582;2023-04-24T14:03:55;3.13;;;2.40;;
71236;SDS011;58984;51.960;5.582;2023-04-24T14:06:21;7.40;;;2.70;;
71236;SDS011;58984;51.960;5.582;2023-04-24T14:08:48;6.25;;;2.70;;
71236;SDS011;58984;51.960;5.582;2023-04-24T14:11:15;5.25;;;2.47;;
71236;SDS011;58984;51.960;5.582;2023-04-24T14:13:41;3.97;;;2.47;;
71236;SDS011;58984;51.960;5.582;2023-04-24T14:16:07;3.17;;;2.53;;
71236;SDS011;58984;51.960;5.582;2023-04-24T14:18:34;4.78;;;2.42;;
71236;SDS011;58984;51.960;5.582;2023-04-24T14:20:59;5.63;;;2.70;;
71236;SDS011;58984;51.960;5.582;2023-04-24T14:23:26;7.85;;;2.95;;
71236;SDS011;58984;51.960;5.582;2023-04-24T14:25:52;3.97;;;2.65;;
71236;SDS011;58984;51.960;5.582;2023-04-24T14:28:18;7.95;;;2.90;;
71236;SDS011;58984;51.960;5.582;2023-04-24T14:30:45;4.18;;;2.50;;
71236;SDS011;58984;51.960;5.582;2023-04-24T14:33:11;5.78;;;2.63;;
71236;SDS011;58984;51.960;5.582;2023-04-24T14:35:37;7.05;;;2.63;;
71236;SDS011;58984;51.960;5.582;2023-04-24T14:38:03;6.15;;;2.83;;
71236;SDS011;58984;51.960;5.582;2023-04-24T14:40:29;8.25;;;3.13;;
71236;SDS011;58984;51.960;5.582;2023-04-24T14:42:56;11.63;;;3.05;;
71236;SDS011;58984;51.960;5.582;2023-04-24T14:45:22;3.67;;;2.85;;
71236;SDS011;58984;51.960;5.582;2023-04-24T14:47:48;5.65;;;3.03;;
71236;SDS011;58984;51.960;5.582;2023-04-24T14:50:14;6.43;;;3.03;;
71236;SDS011;58984;51.960;5.582;2023-04-24T14:52:39;5.95;;;2.95;;
71236;SDS011;58984;51.960;5.582;2023-04-24T14:55:05;6.75;;;3.03;;
71236;SDS011;58984;51.960;5.582;2023-04-24T14:57:31;6.35;;;3.20;;
71236;SDS011;58984;51.960;5.582;2023-04-24T14:59:58;5.88;;;3.53;;